sensor_id;sensor_type;location;lat;lon;timestamp;pressure;altitude;pressure_sealevel;temperature;humidity
56671;BME280;42545;50.054;8.306;2022-09-16T00:01:10;99409.44;;;13.72;81.82
56671;BME280;42545;50.054;8.306;2022-09-16T00:03:37;99418.28;;;13.69;81.57
56671;BME280;42545;50.054;8.306;2022-09-16T00:06:05;99416.50;;;13.68;80.67
56671;BME280;42545;50.054;8.306;2022-09-16T00:08:32;99412.13;;;13.62;78.95
56671;BME280;42545;50.054;8.306;2022-09-16T00:10:58;99415.66;;;13.63;78.22
56671;BME280;42545;50.054;8.306;2022-09-16T00:13:26;99406.84;;;13.64;78.13
56671;BME280;42545;50.054;8.306;2022-09-16T00:15:52;99404.19;;;13.65;78.74
56671;BME280;42545;50.054;8.306;2022-09-16T00:18:21;99414.75;;;13.67;79.44
56671;BME280;42545;50.054;8.306;2022-09-16T00:20:50;99413.91;;;13.63;79.32
56671;BME280;42545;50.054;8.306;2022-09-16T00:23:19;99411.25;;;13.62;78.75
56671;BME280;42545;50.054;8.306;2022-09-16T00:25:49;99413.00;;;13.61;79.37
56671;BME280;42545;50.054;8.306;2022-09-16T00:28:18;99408.63;;;13.59;78.87
56671;BME280;42545;50.054;8.306;2022-09-16T00:30:45;99415.72;;;13.57;78.10
56671;BME280;42545;50.054;8.306;2022-09-16T00:33:13;99411.28;;;13.56;78.31
56671;BME280;42545;50.054;8.306;2022-09-16T00:35:41;99410.41;;;13.57;78.58
56671;BME280;42545;50.054;8.306;2022-09-16T00:38:08;99406.88;;;13.56;78.47
56671;BME280;42545;50.054;8.306;2022-09-16T00:40:42;99404.19;;;13.58;78.61
56671;BME280;42545;50.054;8.306;2022-09-16T00:43:11;99409.50;;;13.59;78.70
56671;BME280;42545;50.054;8.306;2022-09-16T00:45:40;99413.06;;;13.58;78.81
56671;BME280;42545;50.054;8.306;2022-09-16T00:48:08;99417.50;;;13.55;77.58
56671;BME280;42545;50.054;8.306;2022-09-16T00:50:44;99403.38;;;13.50;76.69
56671;BME280;42545;50.054;8.306;2022-09-16T00:53:15;99410.44;;;13.51;76.99
56671;BME280;42545;50.054;8.306;2022-09-16T00:55:43;99414.84;;;13.50;77.29
56671;BME280;42545;50.054;8.306;2022-09-16T00:58:16;99418.41;;;13.49;78.11
56671;BME280;42545;50.054;8.306;2022-09-16T01:00:44;99410.47;;;13.49;78.26
56671;BME280;42545;50.054;8.306;2022-09-16T01:03:11;99405.16;;;13.48;79.21
56671;BME280;42545;50.054;8.306;2022-09-16T01:05:37;99406.94;;;13.47;79.17
56671;BME280;42545;50.054;8.306;2022-09-16T01:08:06;99408.72;;;13.43;78.98
56671;BME280;42545;50.054;8.306;2022-09-16T01:10:34;99407.88;;;13.40;78.29
56671;BME280;42545;50.054;8.306;2022-09-16T01:13:03;99405.22;;;13.40;79.11
56671;BME280;42545;50.054;8.306;2022-09-16T01:15:36;99407.88;;;13.38;79.15
56671;BME280;42545;50.054;8.306;2022-09-16T01:18:13;99407.88;;;13.37;78.95
56671;BME280;42545;50.054;8.306;2022-09-16T01:20:57;99416.69;;;13.36;78.59
56671;BME280;42545;50.054;8.306;2022-09-16T01:24:03;99410.53;;;13.34;78.04
56671;BME280;42545;50.054;8.306;2022-09-16T01:26:44;99412.31;;;13.33;78.05
56671;BME280;42545;50.054;8.306;2022-09-16T01:29:29;99402.59;;;13.32;77.31
56671;BME280;42545;50.054;8.306;2022-09-16T01:32:08;99400.84;;;13.31;76.86
56671;BME280;42545;50.054;8.306;2022-09-16T01:34:44;99401.72;;;13.32;77.81
56671;BME280;42545;50.054;8.306;2022-09-16T01:37:22;99399.94;;;13.29;76.74
56671;BME280;42545;50.054;8.306;2022-09-16T01:39:58;99401.72;;;13.27;75.85
56671;BME280;42545;50.054;8.306;2022-09-16T01:42:35;99409.66;;;13.25;76.11
56671;BME280;42545;50.054;8.306;2022-09-16T01:45:07;99412.31;;;13.25;76.36
56671;BME280;42545;50.054;8.306;2022-09-16T01:47:43;99410.53;;;13.21;75.59
56671;BME280;42545;50.054;8.306;2022-09-16T01:50:18;99407.94;;;13.20;74.51
56671;BME280;42545;50.054;8.306;2022-09-16T01:52:57;99414.97;;;13.24;75.49
56671;BME280;42545;50.054;8.306;2022-09-16T01:55:31;99406.13;;;13.25;75.47
56671;BME280;42545;50.054;8.306;2022-09-16T01:58:02;99419.38;;;13.25;75.62
56671;BME280;42545;50.054;8.306;2022-09-16T02:00:32;99410.53;;;13.24;75.62
56671;BME280;42545;50.054;8.306;2022-09-16T02:03:02;99414.06;;;13.26;76.58
56671;BME280;42545;50.054;8.306;2022-09-16T02:05:33;99414.06;;;13.26;77.22
56671;BME280;42545;50.054;8.306;2022-09-16T02:08:05;99419.41;;;13.23;76.84
56671;BME280;42545;50.054;8.306;2022-09-16T02:10:38;99425.56;;;13.21;76.78
56671;BME280;42545;50.054;8.306;2022-09-16T02:13:10;99416.75;;;13.17;77.72
56671;BME280;42545;50.054;8.306;2022-09-16T02:19:16;99417.66;;;13.16;77.37
56671;BME280;42545;50.054;8.306;2022-09-16T02:21:45;99410.59;;;13.17;77.40
56671;BME280;42545;50.054;8.306;2022-09-16T02:24:15;99410.59;;;13.17;76.97
56671;BME280;42545;50.054;8.306;2022-09-16T02:26:43;99398.22;;;13.16;76.87
56671;BME280;42545;50.054;8.306;2022-09-16T02:29:16;99397.34;;;13.14;77.12
56671;BME280;42545;50.054;8.306;2022-09-16T02:31:46;99400.91;;;13.14;77.54
56671;BME280;42545;50.054;8.306;2022-09-16T02:34:19;99393.81;;;13.16;78.09
56671;BME280;42545;50.054;8.306;2022-09-16T02:36:52;99403.53;;;13.14;77.96
56671;BME280;42545;50.054;8.306;2022-09-16T02:39:27;99404.41;;;13.13;78.46
56671;BME280;42545;50.054;8.306;2022-09-16T02:41:56;99408.84;;;13.13;78.14
56671;BME280;42545;50.054;8.306;2022-09-16T02:44:24;99404.41;;;13.12;77.79
56671;BME280;42545;50.054;8.306;2022-09-16T02:46:57;99400.91;;;13.13;77.75
56671;BME280;42545;50.054;8.306;2022-09-16T02:49:36;99410.63;;;13.11;77.31
56671;BME280;42545;50.054;8.306;2022-09-16T02:52:13;99410.63;;;13.11;77.11
56671;BME280;42545;50.054;8.306;2022-09-16T02:54:46;99404.41;;;13.12;77.64
56671;BME280;42545;50.054;8.306;2022-09-16T02:57:14;99409.72;;;13.10;77.80
56671;BME280;42545;50.054;8.306;2022-09-16T02:59:41;99407.97;;;13.11;78.10
56671;BME280;42545;50.054;8.306;2022-09-16T03:02:09;99413.25;;;13.12;78.82
56671;BME280;42545;50.054;8.306;2022-09-16T03:04:37;99410.63;;;13.11;79.35
56671;BME280;42545;50.054;8.306;2022-09-16T03:07:05;99409.72;;;13.10;79.90
56671;BME280;42545;50.054;8.306;2022-09-16T03:09:35;99418.56;;;13.09;80.11
56671;BME280;42545;50.054;8.306;2022-09-16T03:12:12;99415.06;;;13.07;80.55
56671;BME280;42545;50.054;8.306;2022-09-16T03:15:14;99409.75;;;13.05;80.68
56671;BME280;42545;50.054;8.306;2022-09-16T03:18:07;99416.84;;;13.02;80.33
56671;BME280;42545;50.054;8.306;2022-09-16T03:20:45;99404.47;;;12.99;80.32
56671;BME280;42545;50.054;8.306;2022-09-16T03:23:22;99408.00;;;12.98;80.29
56671;BME280;42545;50.054;8.306;2022-09-16T03:25:56;99404.47;;;12.99;81.10
56671;BME280;42545;50.054;8.306;2022-09-16T03:28:26;99403.59;;;12.97;80.88
56671;BME280;42545;50.054;8.306;2022-09-16T03:31:08;99400.97;;;12.94;80.44
56671;BME280;42545;50.054;8.306;2022-09-16T03:33:39;99388.63;;;12.93;81.01
56671;BME280;42545;50.054;8.306;2022-09-16T03:36:13;99401.84;;;12.96;81.72
56671;BME280;42545;50.054;8.306;2022-09-16T03:38:42;99396.56;;;12.92;81.21
56671;BME280;42545;50.054;8.306;2022-09-16T03:41:09;99400.06;;;12.92;81.54
56671;BME280;42545;50.054;8.306;2022-09-16T03:43:37;99394.78;;;12.92;81.57
56671;BME280;42545;50.054;8.306;2022-09-16T03:46:09;99394.81;;;12.89;81.74
56671;BME280;42545;50.054;8.306;2022-09-16T03:48:36;99388.63;;;12.88;82.02
56671;BME280;42545;50.054;8.306;2022-09-16T03:51:02;99379.81;;;12.88;82.86
56671;BME280;42545;50.054;8.306;2022-09-16T03:53:31;99385.09;;;12.91;83.81
56671;BME280;42545;50.054;8.306;2022-09-16T03:55:57;99388.63;;;12.90;84.38
56671;BME280;42545;50.054;8.306;2022-09-16T03:58:24;99392.16;;;12.87;84.03
56671;BME280;42545;50.054;8.306;2022-09-16T04:00:51;99389.53;;;12.87;84.99
56671;BME280;42545;50.054;8.306;2022-09-16T04:03:18;99386.00;;;12.84;84.57
56671;BME280;42545;50.054;8.306;2022-09-16T04:05:45;99390.44;;;12.82;84.37
56671;BME280;42545;50.054;8.306;2022-09-16T04:08:11;99382.47;;;12.80;84.63
56671;BME280;42545;50.054;8.306;2022-09-16T04:10:39;99387.78;;;12.79;84.33
56671;BME280;42545;50.054;8.306;2022-09-16T04:13:06;99379.84;;;12.79;84.64
56671;BME280;42545;50.054;8.306;2022-09-16T04:15:35;99391.34;;;12.78;84.47
56671;BME280;42545;50.054;8.306;2022-09-16T04:18:03;99382.47;;;12.77;84.63
56671;BME280;42545;50.054;8.306;2022-09-16T04:20:30;99383.38;;;12.78;84.74
56671;BME280;42545;50.054;8.306;2022-09-16T04:22:58;99382.47;;;12.76;85.04
56671;BME280;42545;50.054;8.306;2022-09-16T04:25:25;99384.25;;;12.74;84.64
56671;BME280;42545;50.054;8.306;2022-09-16T04:27:53;99376.31;;;12.75;85.39
56671;BME280;42545;50.054;8.306;2022-09-16T04:30:20;99377.19;;;12.76;86.38
56671;BME280;42545;50.054;8.306;2022-09-16T04:32:46;99378.97;;;12.75;87.02
56671;BME280;42545;50.054;8.306;2022-09-16T04:35:13;99375.44;;;12.73;87.59
56671;BME280;42545;50.054;8.306;2022-09-16T04:37:43;99375.44;;;12.70;87.49
56671;BME280;42545;50.054;8.306;2022-09-16T04:40:10;99381.63;;;12.69;87.99
56671;BME280;42545;50.054;8.306;2022-09-16T04:42:37;99379.00;;;12.64;87.65
56671;BME280;42545;50.054;8.306;2022-09-16T04:45:07;99379.91;;;12.65;88.58
56671;BME280;42545;50.054;8.306;2022-09-16T04:47:34;99386.97;;;12.61;87.59
56671;BME280;42545;50.054;8.306;2022-09-16T04:50:01;99382.53;;;12.60;87.63
56671;BME280;42545;50.054;8.306;2022-09-16T04:52:29;99389.63;;;12.61;87.65
56671;BME280;42545;50.054;8.306;2022-09-16T04:54:55;99382.53;;;12.60;88.15
56671;BME280;42545;50.054;8.306;2022-09-16T04:57:22;99383.41;;;12.59;87.97
56671;BME280;42545;50.054;8.306;2022-09-16T04:59:49;99382.53;;;12.60;87.81
56671;BME280;42545;50.054;8.306;2022-09-16T05:02:17;99384.31;;;12.60;88.07
56671;BME280;42545;50.054;8.306;2022-09-16T05:04:44;99388.72;;;12.61;88.40
56671;BME280;42545;50.054;8.306;2022-09-16T05:07:11;99382.53;;;12.63;88.92
56671;BME280;42545;50.054;8.306;2022-09-16T05:09:38;99391.34;;;12.62;88.96
56671;BME280;42545;50.054;8.306;2022-09-16T05:12:06;99394.91;;;12.61;88.83
56671;BME280;42545;50.054;8.306;2022-09-16T05:14:33;99394.91;;;12.61;88.92
56671;BME280;42545;50.054;8.306;2022-09-16T05:16:59;99392.22;;;12.63;89.50
56671;BME280;42545;50.054;8.306;2022-09-16T05:19:28;99390.47;;;12.62;89.57
56671;BME280;42545;50.054;8.306;2022-09-16T05:21:54;99397.53;;;12.64;90.08
56671;BME280;42545;50.054;8.306;2022-09-16T05:24:21;99393.13;;;12.63;89.92
56671;BME280;42545;50.054;8.306;2022-09-16T05:26:48;99392.22;;;12.63;90.12
56671;BME280;42545;50.054;8.306;2022-09-16T05:29:15;99392.25;;;12.61;89.31
56671;BME280;42545;50.054;8.306;2022-09-16T05:31:44;99393.13;;;12.62;90.09
56671;BME280;42545;50.054;8.306;2022-09-16T05:34:14;99395.78;;;12.60;89.38
56671;BME280;42545;50.054;8.306;2022-09-16T05:36:43;99394.91;;;12.60;89.73
56671;BME280;42545;50.054;8.306;2022-09-16T05:39:12;99401.94;;;12.61;90.35
56671;BME280;42545;50.054;8.306;2022-09-16T05:41:40;99399.28;;;12.62;90.58
56671;BME280;42545;50.054;8.306;2022-09-16T05:44:07;99401.06;;;12.62;90.45
56671;BME280;42545;50.054;8.306;2022-09-16T05:46:33;99387.84;;;12.60;90.13
56671;BME280;42545;50.054;8.306;2022-09-16T05:49:00;99393.13;;;12.60;90.32
56671;BME280;42545;50.054;8.306;2022-09-16T05:51:27;99388.72;;;12.59;90.16
56671;BME280;42545;50.054;8.306;2022-09-16T05:53:57;99395.78;;;12.60;90.59
56671;BME280;42545;50.054;8.306;2022-09-16T05:56:26;99395.78;;;12.62;91.04
56671;BME280;42545;50.054;8.306;2022-09-16T05:58:54;99394.00;;;12.62;90.63
56671;BME280;42545;50.054;8.306;2022-09-16T06:01:23;99402.84;;;12.61;90.17
56671;BME280;42545;50.054;8.306;2022-09-16T06:03:51;99400.19;;;12.60;89.77
56671;BME280;42545;50.054;8.306;2022-09-16T06:06:21;99395.78;;;12.59;89.60
56671;BME280;42545;50.054;8.306;2022-09-16T06:08:49;99394.91;;;12.61;89.28
56671;BME280;42545;50.054;8.306;2022-09-16T06:11:18;99387.84;;;12.62;89.27
56671;BME280;42545;50.054;8.306;2022-09-16T06:13:45;99385.19;;;12.65;90.17
56671;BME280;42545;50.054;8.306;2022-09-16T06:16:12;99397.53;;;12.67;89.13
56671;BME280;42545;50.054;8.306;2022-09-16T06:18:39;99393.09;;;12.66;88.80
56671;BME280;42545;50.054;8.306;2022-09-16T06:21:08;99392.22;;;12.71;89.43
56671;BME280;42545;50.054;8.306;2022-09-16T06:23:38;99396.63;;;12.75;89.25
56671;BME280;42545;50.054;8.306;2022-09-16T06:26:07;99396.63;;;12.75;88.90
56671;BME280;42545;50.054;8.306;2022-09-16T06:28:36;99401.91;;;12.73;88.55
56671;BME280;42545;50.054;8.306;2022-09-16T06:31:04;99398.38;;;12.76;88.60
56671;BME280;42545;50.054;8.306;2022-09-16T06:33:31;99387.78;;;12.79;89.84
56671;BME280;42545;50.054;8.306;2022-09-16T06:36:02;99392.16;;;12.83;89.38
56671;BME280;42545;50.054;8.306;2022-09-16T06:38:29;99394.84;;;12.81;88.42
56671;BME280;42545;50.054;8.306;2022-09-16T06:40:57;99394.84;;;12.81;88.41
56671;BME280;42545;50.054;8.306;2022-09-16T06:43:24;99401.00;;;12.79;87.85
56671;BME280;42545;50.054;8.306;2022-09-16T06:45:56;99401.00;;;12.77;87.61
56671;BME280;42545;50.054;8.306;2022-09-16T06:48:23;99395.72;;;12.77;87.35
56671;BME280;42545;50.054;8.306;2022-09-16T06:50:56;99392.19;;;12.75;87.12
56671;BME280;42545;50.054;8.306;2022-09-16T06:53:23;99396.63;;;12.76;86.38
56671;BME280;42545;50.054;8.306;2022-09-16T06:55:50;99395.72;;;12.77;87.35
56671;BME280;42545;50.054;8.306;2022-09-16T06:58:17;99398.34;;;12.85;87.69
56671;BME280;42545;50.054;8.306;2022-09-16T07:00:44;99397.47;;;12.86;86.43
56671;BME280;42545;50.054;8.306;2022-09-16T07:03:12;99388.63;;;12.90;85.93
56671;BME280;42545;50.054;8.306;2022-09-16T07:05:39;99400.09;;;12.89;84.58
56671;BME280;42545;50.054;8.306;2022-09-16T07:08:06;99393.03;;;12.91;84.12
56671;BME280;42545;50.054;8.306;2022-09-16T07:10:32;99402.72;;;12.94;84.59
56671;BME280;42545;50.054;8.306;2022-09-16T07:12:59;99395.69;;;12.93;84.96
56671;BME280;42545;50.054;8.306;2022-09-16T07:15:26;99399.19;;;12.88;84.36
56671;BME280;42545;50.054;8.306;2022-09-16T07:17:53;99404.50;;;12.96;84.63
56671;BME280;42545;50.054;8.306;2022-09-16T07:20:21;99393.88;;;13.01;83.31
56671;BME280;42545;50.054;8.306;2022-09-16T07:22:48;99403.56;;;13.10;82.30
56671;BME280;42545;50.054;8.306;2022-09-16T07:25:18;99402.63;;;13.18;82.12
56671;BME280;42545;50.054;8.306;2022-09-16T07:27:44;99388.47;;;13.25;81.20
56671;BME280;42545;50.054;8.306;2022-09-16T07:30:12;99390.19;;;13.39;80.73
56671;BME280;42545;50.054;8.306;2022-09-16T07:32:38;99395.38;;;13.57;82.16
56671;BME280;42545;50.054;8.306;2022-09-16T07:35:06;99384.72;;;13.65;79.26
56671;BME280;42545;50.054;8.306;2022-09-16T07:37:35;99391.72;;;13.74;78.66
56671;BME280;42545;50.054;8.306;2022-09-16T07:40:03;99390.00;;;13.73;76.81
56671;BME280;42545;50.054;8.306;2022-09-16T07:42:30;99392.66;;;13.68;75.20
56671;BME280;42545;50.054;8.306;2022-09-16T07:44:57;99396.09;;;13.79;75.82
56671;BME280;42545;50.054;8.306;2022-09-16T07:47:24;99394.28;;;13.89;76.57
56671;BME280;42545;50.054;8.306;2022-09-16T07:49:51;99400.41;;;13.94;76.00
56671;BME280;42545;50.054;8.306;2022-09-16T07:52:21;99407.50;;;13.92;74.92
56671;BME280;42545;50.054;8.306;2022-09-16T07:54:49;99410.19;;;13.89;73.93
56671;BME280;42545;50.054;8.306;2022-09-16T07:57:16;99418.16;;;13.84;72.70
56671;BME280;42545;50.054;8.306;2022-09-16T07:59:43;99408.50;;;13.79;72.16
56671;BME280;42545;50.054;8.306;2022-09-16T08:02:10;99413.84;;;13.70;70.76
56671;BME280;42545;50.054;8.306;2022-09-16T08:04:37;99420.03;;;13.70;71.79
56671;BME280;42545;50.054;8.306;2022-09-16T08:07:04;99412.94;;;13.72;71.96
56671;BME280;42545;50.054;8.306;2022-09-16T08:09:32;99406.69;;;13.84;71.24
56671;BME280;42545;50.054;8.306;2022-09-16T08:12:01;99407.50;;;13.95;70.57
56671;BME280;42545;50.054;8.306;2022-09-16T08:14:29;99417.09;;;14.10;70.40
56671;BME280;42545;50.054;8.306;2022-09-16T08:16:57;99413.47;;;14.20;68.59
56671;BME280;42545;50.054;8.306;2022-09-16T08:19:25;99409.97;;;14.17;67.04
56671;BME280;42545;50.054;8.306;2022-09-16T08:21:51;99410.84;;;14.17;68.26
56671;BME280;42545;50.054;8.306;2022-09-16T08:24:19;99413.56;;;14.13;66.12
56671;BME280;42545;50.054;8.306;2022-09-16T08:26:45;99410.75;;;14.28;68.32
56671;BME280;42545;50.054;8.306;2022-09-16T08:29:13;99414.09;;;14.49;69.48
56671;BME280;42545;50.054;8.306;2022-09-16T08:31:40;99414.78;;;14.69;68.24
56671;BME280;42545;50.054;8.306;2022-09-16T08:34:07;99411.13;;;14.84;66.79
56671;BME280;42545;50.054;8.306;2022-09-16T08:36:34;99418.16;;;14.85;64.45
56671;BME280;42545;50.054;8.306;2022-09-16T08:39:01;99418.06;;;14.93;66.56
56671;BME280;42545;50.054;8.306;2022-09-16T08:41:38;99422.44;;;14.98;65.33
56671;BME280;42545;50.054;8.306;2022-09-16T08:44:18;99414.41;;;15.03;64.35
56671;BME280;42545;50.054;8.306;2022-09-16T08:46:51;99416.13;;;15.09;64.97
56671;BME280;42545;50.054;8.306;2022-09-16T08:49:28;99416.09;;;15.12;65.51
56671;BME280;42545;50.054;8.306;2022-09-16T08:51:57;99421.41;;;15.12;63.63
56671;BME280;42545;50.054;8.306;2022-09-16T08:54:27;99420.50;;;15.13;63.52
56671;BME280;42545;50.054;8.306;2022-09-16T08:56:59;99421.41;;;15.10;62.28
56671;BME280;42545;50.054;8.306;2022-09-16T08:59:33;99421.53;;;15.03;62.86
56671;BME280;42545;50.054;8.306;2022-09-16T09:02:17;99413.66;;;14.92;62.07
56671;BME280;42545;50.054;8.306;2022-09-16T09:04:47;99414.53;;;14.94;63.54
56671;BME280;42545;50.054;8.306;2022-09-16T09:07:26;99423.25;;;15.05;64.74
56671;BME280;42545;50.054;8.306;2022-09-16T09:10:02;99408.97;;;15.15;63.31
56671;BME280;42545;50.054;8.306;2022-09-16T09:12:37;99415.00;;;15.27;63.20
56671;BME280;42545;50.054;8.306;2022-09-16T09:15:16;99409.59;;;15.33;62.40
56671;BME280;42545;50.054;8.306;2022-09-16T09:17:56;99411.38;;;15.35;61.48
56671;BME280;42545;50.054;8.306;2022-09-16T09:20:33;99414.13;;;15.28;59.25
56671;BME280;42545;50.054;8.306;2022-09-16T09:23:14;99411.53;;;15.22;59.58
56671;BME280;42545;50.054;8.306;2022-09-16T09:25:48;99418.63;;;15.21;60.70
56671;BME280;42545;50.054;8.306;2022-09-16T09:28:36;99413.25;;;15.26;60.53
56671;BME280;42545;50.054;8.306;2022-09-16T09:31:12;99411.41;;;15.29;62.14
56671;BME280;42545;50.054;8.306;2022-09-16T09:33:50;99407.81;;;15.35;61.31
56671;BME280;42545;50.054;8.306;2022-09-16T09:36:34;99410.31;;;15.46;63.79
56671;BME280;42545;50.054;8.306;2022-09-16T09:39:29;99407.63;;;15.49;62.75
56671;BME280;42545;50.054;8.306;2022-09-16T09:42:03;99409.59;;;15.34;60.03
56671;BME280;42545;50.054;8.306;2022-09-16T09:44:40;99407.91;;;15.27;61.17
56671;BME280;42545;50.054;8.306;2022-09-16T09:47:16;99405.34;;;15.19;60.87
56671;BME280;42545;50.054;8.306;2022-09-16T09:49:48;99410.84;;;15.06;61.34
56671;BME280;42545;50.054;8.306;2022-09-16T09:52:22;99406.44;;;15.03;62.47
56671;BME280;42545;50.054;8.306;2022-09-16T09:54:52;99411.84;;;14.97;63.43
56671;BME280;42545;50.054;8.306;2022-09-16T09:57:25;99402.22;;;14.85;62.47
56671;BME280;42545;50.054;8.306;2022-09-16T09:59:58;99399.66;;;14.79;62.83
56671;BME280;42545;50.054;8.306;2022-09-16T10:02:27;99410.25;;;14.80;63.73
56671;BME280;42545;50.054;8.306;2022-09-16T10:04:54;99403.25;;;14.73;63.01
56671;BME280;42545;50.054;8.306;2022-09-16T10:07:24;99403.28;;;14.72;63.10
56671;BME280;42545;50.054;8.306;2022-09-16T10:09:54;99402.44;;;14.68;62.57
56671;BME280;42545;50.054;8.306;2022-09-16T10:12:27;99408.56;;;14.75;64.09
56671;BME280;42545;50.054;8.306;2022-09-16T10:14:54;99408.56;;;14.73;63.05
56671;BME280;42545;50.054;8.306;2022-09-16T10:17:21;99405.91;;;14.73;62.57
56671;BME280;42545;50.054;8.306;2022-09-16T10:19:53;99406.78;;;14.74;62.66
56671;BME280;42545;50.054;8.306;2022-09-16T10:22:23;99407.59;;;14.80;63.97
56671;BME280;42545;50.054;8.306;2022-09-16T10:24:53;99410.19;;;14.85;62.80
56671;BME280;42545;50.054;8.306;2022-09-16T10:27:23;99405.72;;;14.89;62.38
56671;BME280;42545;50.054;8.306;2022-09-16T10:30:05;99408.28;;;14.96;62.22
56671;BME280;42545;50.054;8.306;2022-09-16T10:32:38;99404.72;;;15.01;62.08
56671;BME280;42545;50.054;8.306;2022-09-16T10:35:17;99396.69;;;15.02;61.87
56671;BME280;42545;50.054;8.306;2022-09-16T10:37:49;99394.84;;;15.10;62.36
56671;BME280;42545;50.054;8.306;2022-09-16T10:40:17;99398.34;;;15.15;62.37
56671;BME280;42545;50.054;8.306;2022-09-16T10:42:47;99400.94;;;15.18;60.96
56671;BME280;42545;50.054;8.306;2022-09-16T10:45:18;99395.59;;;15.20;62.08
56671;BME280;42545;50.054;8.306;2022-09-16T10:47:49;99394.63;;;15.27;62.58
56671;BME280;42545;50.054;8.306;2022-09-16T10:50:19;99391.06;;;15.28;62.17
56671;BME280;42545;50.054;8.306;2022-09-16T10:52:47;99391.06;;;15.28;62.73
56671;BME280;42545;50.054;8.306;2022-09-16T10:55:24;99384.06;;;15.23;61.97
56671;BME280;42545;50.054;8.306;2022-09-16T10:57:53;99384.94;;;15.23;62.52
56671;BME280;42545;50.054;8.306;2022-09-16T11:00:21;99383.16;;;15.22;63.11
56671;BME280;42545;50.054;8.306;2022-09-16T11:03:07;99381.41;;;15.23;63.03
56671;BME280;42545;50.054;8.306;2022-09-16T11:05:47;99384.91;;;15.26;62.42
56671;BME280;42545;50.054;8.306;2022-09-16T11:08:24;99384.88;;;15.28;63.24
56671;BME280;42545;50.054;8.306;2022-09-16T11:11:03;99385.81;;;15.22;61.29
56671;BME280;42545;50.054;8.306;2022-09-16T11:13:40;99386.72;;;15.24;62.61
56671;BME280;42545;50.054;8.306;2022-09-16T11:16:19;99387.59;;;15.25;61.85
56671;BME280;42545;50.054;8.306;2022-09-16T11:18:56;99389.41;;;15.21;61.94
56671;BME280;42545;50.054;8.306;2022-09-16T11:21:44;99388.47;;;15.24;62.74
56671;BME280;42545;50.054;8.306;2022-09-16T11:24:32;99383.13;;;15.27;62.04
56671;BME280;42545;50.054;8.306;2022-09-16T11:27:08;99379.41;;;15.38;59.21
56671;BME280;42545;50.054;8.306;2022-09-16T11:29:49;99377.22;;;15.68;60.75
56671;BME280;42545;50.054;8.306;2022-09-16T11:32:28;99377.59;;;16.01;59.94
56671;BME280;42545;50.054;8.306;2022-09-16T11:35:14;99371.69;;;16.35;59.12
56671;BME280;42545;50.054;8.306;2022-09-16T11:37:55;99370.56;;;16.48;58.03
56671;BME280;42545;50.054;8.306;2022-09-16T11:40:30;99373.34;;;16.41;57.23
56671;BME280;42545;50.054;8.306;2022-09-16T11:46:02;99389.34;;;15.88;58.10
56671;BME280;42545;50.054;8.306;2022-09-16T11:48:40;99390.41;;;15.78;59.60
56671;BME280;42545;50.054;8.306;2022-09-16T11:51:23;99403.88;;;15.62;60.41
56671;BME280;42545;50.054;8.306;2022-09-16T11:54:10;99392.25;;;15.69;60.66
56671;BME280;42545;50.054;8.306;2022-09-16T11:56:44;99394.72;;;15.86;62.24
56671;BME280;42545;50.054;8.306;2022-09-16T11:59:17;99398.81;;;16.04;61.25
56671;BME280;42545;50.054;8.306;2022-09-16T12:01:49;99397.56;;;16.28;61.59
56671;BME280;42545;50.054;8.306;2022-09-16T12:04:22;99386.63;;;16.44;58.82
56671;BME280;42545;50.054;8.306;2022-09-16T12:06:55;99377.53;;;16.56;60.27
56671;BME280;42545;50.054;8.306;2022-09-16T12:09:35;99380.78;;;16.70;60.18
56671;BME280;42545;50.054;8.306;2022-09-16T12:12:09;99371.06;;;16.69;57.54
56671;BME280;42545;50.054;8.306;2022-09-16T12:14:41;99368.25;;;16.75;57.47
56671;BME280;42545;50.054;8.306;2022-09-16T12:17:13;99367.25;;;16.84;57.49
56671;BME280;42545;50.054;8.306;2022-09-16T12:19:46;99358.44;;;16.77;57.33
56671;BME280;42545;50.054;8.306;2022-09-16T12:22:19;99367.47;;;16.70;57.37
56671;BME280;42545;50.054;8.306;2022-09-16T12:24:55;99360.47;;;16.66;57.34
56671;BME280;42545;50.054;8.306;2022-09-16T12:27:31;99367.75;;;16.56;58.59
56671;BME280;42545;50.054;8.306;2022-09-16T12:30:04;99360.63;;;16.58;59.50
56671;BME280;42545;50.054;8.306;2022-09-16T12:32:37;99361.41;;;16.63;59.49
56671;BME280;42545;50.054;8.306;2022-09-16T12:35:11;99356.00;;;16.66;60.31
56671;BME280;42545;50.054;8.306;2022-09-16T12:37:45;99362.28;;;16.64;61.26
56671;BME280;42545;50.054;8.306;2022-09-16T12:40:16;99349.94;;;16.60;62.39
56671;BME280;42545;50.054;8.306;2022-09-16T12:46:04;99354.41;;;16.59;61.82
56671;BME280;42545;50.054;8.306;2022-09-16T12:48:47;99349.91;;;16.61;62.06
56671;BME280;42545;50.054;8.306;2022-09-16T12:51:32;99348.09;;;16.63;61.96
56671;BME280;42545;50.054;8.306;2022-09-16T12:54:16;99343.94;;;16.48;57.71
56671;BME280;42545;50.054;8.306;2022-09-16T12:57:07;99346.00;;;16.32;57.69
56671;BME280;42545;50.054;8.306;2022-09-16T12:59:49;99346.25;;;16.19;58.47
56671;BME280;42545;50.054;8.306;2022-09-16T13:02:19;99349.91;;;16.11;59.82
56671;BME280;42545;50.054;8.306;2022-09-16T13:04:48;99356.19;;;16.09;61.72
56671;BME280;42545;50.054;8.306;2022-09-16T13:07:21;99343.81;;;16.06;61.74
56671;BME280;42545;50.054;8.306;2022-09-16T13:09:48;99346.53;;;16.03;62.80
56671;BME280;42545;50.054;8.306;2022-09-16T13:12:28;99351.88;;;16.00;62.93
56671;BME280;42545;50.054;8.306;2022-09-16T13:14:57;99352.75;;;16.02;63.55
56671;BME280;42545;50.054;8.306;2022-09-16T13:17:30;99349.25;;;15.99;62.51
56671;BME280;42545;50.054;8.306;2022-09-16T13:20:02;99354.69;;;15.92;63.02
56671;BME280;42545;50.054;8.306;2022-09-16T13:22:36;99350.34;;;15.87;62.76
56671;BME280;42545;50.054;8.306;2022-09-16T13:25:09;99345.06;;;15.84;63.04
56671;BME280;42545;50.054;8.306;2022-09-16T13:27:40;99349.38;;;15.92;63.84
56671;BME280;42545;50.054;8.306;2022-09-16T13:30:33;99341.28;;;15.97;59.81
56671;BME280;42545;50.054;8.306;2022-09-16T13:35:49;99326.72;;;16.20;53.38